Wednesday, September 19, 2018, 6:40 PM GMT
Back to Local

CYPD, Port Hawkesbury

Location: , , Canada Lat: 45.667
Local Time: 6:40 PM GMT (18:40 GMT) Lon: -61.383
Time Zone: GMT Elev: 374 ft

Show me the last for .
Show Coded

Time T Td Feel RH Dir Speed Gust Alt SLP Vis Weather Sky Remarks
2018-09-19 18:17 52 50 - 93 60° 14 20 30.01 30.02 7 BKN012 OVC019 None
2018-09-19 18:00 52 50 - 93 50° 9 21 30.01 30.02 6 -RA BR BKN013 OVC021 None
2018-09-19 17:16 52 50 - 93 50° 13 22 30.00 30.01 9 -RA SCT009 BKN015 BKN021 OVC033 None
2018-09-19 17:05 52 50 - 93 60° 14 20 30.00 30.01 6 -RA BR BKN009 BKN015 OVC030 None
2018-09-19 17:00 52 50 - 93 50° 13 21 30.00 30.01 5 -RA BR BKN009 BKN015 OVC029 None
2018-09-19 16:56 52 50 - 93 60° 13 21 29.99 30.00 5 -RA BR BKN007 BKN015 BKN035 OVC050 None
2018-09-19 16:51 52 50 - 93 50° 12 22 29.99 30.00 5 -RA BR SCT007 BKN011 BKN021 OVC034 None
2018-09-19 16:50 52 50 - 93 50° 12 22 29.99 30.00 5 -RA BR BKN007 BKN014 OVC034 None
2018-09-19 16:47 52 50 - 93 60° 15 22 29.99 30.00 4 -RA BR SCT007 BKN012 OVC025 None
2018-09-19 16:46 52 52 - 100 60° 14 22 29.99 30.00 4 -RA BR BKN007 BKN014 OVC025 None
2018-09-19 16:45 52 52 - 100 60° 12 20 29.99 30.00 4 -RA BR SCT007 BKN012 OVC020 None
2018-09-19 16:40 52 52 - 100 60° 12 21 29.99 30.00 3 -RA BR BKN009 OVC016 None
2018-09-19 16:39 52 52 - 100 60° 13 21 29.99 30.00 3 -RA BR SCT007 OVC012 None
2018-09-19 16:38 52 52 - 100 50° 13 21 29.99 30.00 3 -RA BR BKN007 OVC014 None
2018-09-19 16:35 52 50 - 93 50° 14 21 29.99 30.00 3 -RA BR SCT007 BKN011 OVC016 None
2018-09-19 16:32 52 50 - 93 60° 15 21 29.99 30.00 4 -RA BR BKN009 OVC016 None
2018-09-19 16:31 52 50 - 93 60° 13 21 29.99 30.00 4 -RA BR SCT009 OVC014 None
2018-09-19 16:23 52 50 - 93 50° 10 23 29.99 30.00 3 -RA BR BKN009 BKN014 OVC022 None
2018-09-19 16:00 52 50 - 93 50° 12 20 29.98 29.99 3 -RA BR SCT009 OVC016 None
2018-09-19 15:52 52 50 - 93 50° 12 22 29.99 30.00 3 -RA BR FEW009 OVC016 None
2018-09-19 15:30 52 50 - 93 60° 12 18 29.98 29.99 2 -RA BR SCT010 BKN015 None
2018-09-19 15:22 52 50 - 93 50° 10 18 29.98 29.99 3 -RA BR BKN010 BKN015 OVC024 None
2018-09-19 15:21 52 50 - 93 50° 10 18 29.98 29.99 3 -RA BR BKN008 BKN012 OVC020 None
2018-09-19 15:11 52 50 - 93 50° 12 21 29.98 29.99 5 -RA BR BKN010 BKN020 OVC027 None
2018-09-19 15:08 52 50 - 93 50° 12 21 29.98 29.99 6 -RA BR BKN010 BKN020 OVC027 None
2018-09-19 15:00 52 50 - 93 50° 9 21 29.98 29.98 3 -RA BR BKN010 BKN013 OVC020 None
2018-09-19 14:29 52 50 - 93 50° 13 22 29.95 29.96 5 -RA BR BKN010 BKN014 OVC019 None
2018-09-19 14:27 52 50 - 93 50° 13 22 29.95 29.96 5 BR SCT010 BKN016 OVC023 None
2018-09-19 14:23 54 50 - 87 60° 13 25 29.95 29.96 8 -RA BKN013 OVC020 None
2018-09-19 14:15 52 50 - 93 60° 14 25 29.95 29.96 5 -RA BR OVC016 None
2018-09-19 14:13 54 50 - 87 70° 17 28 29.95 29.96 5 BR OVC016 None
2018-09-19 14:00 54 50 - 87 70° 17 25 29.95 29.96 9 BKN013 OVC019 None
2018-09-19 13:00 54 50 - 87 60° 16 26 29.92 29.93 9 OVC015 None
2018-09-19 12:11 52 50 - 93 70° 18 29 29.90 29.91 9 BKN013 OVC018 None
2018-09-19 12:00 52 50 - 93 70° 16 29 29.90 29.91 9 -RA BKN011 BKN017 OVC023 None
2018-09-19 11:37 52 50 - 93 70° 17 28 29.89 29.90 9 -RA BKN011 OVC016 Pressure falling rapidly
2018-09-19 11:14 52 50 - 93 50° 12 18 29.90 29.91 9 BKN011 OVC017 None
2018-09-19 11:00 52 50 - 93 60° 13 22 29.90 29.90 9 -RA OVC011 None
2018-09-19 10:53 52 50 - 93 60° 15 23 29.89 29.90 9 -RA BKN011 OVC018 None
2018-09-19 10:22 52 50 - 93 60° 14 25 29.89 29.90 6 -RA BR OVC011 None
2018-09-19 10:13 52 50 - 93 60° 15 26 29.89 29.89 5 -RA BR BKN011 OVC014 None
2018-09-19 10:11 52 50 - 93 70° 14 26 29.88 29.89 5 BR OVC011 None
2018-09-19 10:10 52 50 - 93 70° 16 26 29.88 29.89 6 BR BKN011 OVC014 None
2018-09-19 10:05 52 50 - 93 60° 16 28 29.88 29.89 7 -RA OVC011 None
2018-09-19 10:00 52 50 - 93 60° 16 28 29.88 29.89 8 -RA OVC009 None
2018-09-19 09:52 52 50 - 93 70° 14 21 29.88 29.88 6 -RA BR OVC009 Pressure rising rapidly
2018-09-19 09:31 52 50 - 93 60° 15 23 29.86 29.87 3 -RA BR OVC009 None
2018-09-19 09:14 52 50 - 93 60° 15 24 29.86 29.87 2 -RA BR OVC009 None
2018-09-19 09:00 52 50 - 93 60° 13 24 29.86 29.86 4 -RA BR OVC011 None
2018-09-19 08:49 52 50 - 93 60° 14 23 29.85 29.86 4 -RA BR OVC011 None
2018-09-19 08:40 52 50 - 93 60° 15 23 29.84 29.85 5 BR OVC011 None
2018-09-19 08:00 52 50 - 93 60° 16 26 29.84 29.85 9 OVC011 None
2018-09-19 07:00 52 50 - 93 70° 18 31 29.83 29.84 9 OVC011 None
2018-09-19 06:00 52 50 - 93 70° 17 26 29.82 29.83 9 OVC011 None
2018-09-19 05:00 52 50 - 93 70° 17 25 29.84 29.84 9 OVC013 None
2018-09-19 04:48 52 52 - 100 70° 15 29 29.83 29.84 9 SCT008 OVC013 None
2018-09-19 04:43 52 52 - 100 70° 18 25 29.83 29.83 7 -RA OVC010 None
2018-09-19 04:14 54 52 - 93 60° 15 23 29.84 29.84 3 -RA BR OVC010 None
2018-09-19 04:01 54 52 - 93 60° 14 23 29.84 29.85 2 -RA BR OVC010 None
2018-09-19 04:00 54 52 - 93 60° 15 23 29.84 29.85 3 -RA BR OVC010 None
2018-09-19 03:48 54 52 - 93 60° 15 24 29.83 29.84 4 -RA BR OVC010 None
2018-09-19 03:44 54 52 - 93 70° 16 24 29.83 29.83 5 BR OVC010 None
2018-09-19 03:20 54 52 - 93 60° 17 28 29.83 29.83 8 OVC010 None
2018-09-19 03:00 54 52 - 93 70° 18 24 29.84 29.84 9 OVC008 None
2018-09-19 02:35 54 52 - 93 60° 17 23 29.83 29.83 9 BKN008 OVC030 None
2018-09-19 02:23 54 52 - 93 60° 13 22 29.84 29.84 6 -RA BR OVC008 None
2018-09-19 02:00 54 52 - 93 50° 13 18 29.84 29.85 3 -RA BR OVC008 None
2018-09-19 01:48 54 54 - 100 50° 13 - 29.84 29.84 3 -RA BR OVC008 None
2018-09-19 01:07 54 54 - 100 50° 14 23 29.83 29.84 2 -RA BR OVC008 None
2018-09-19 01:00 55 54 - 93 50° 13 22 29.83 29.84 3 -RA BR OVC008 None
2018-09-19 00:24 55 54 - 93 60° 15 22 29.82 29.82 3 -RA BR OVC008 None
2018-09-19 00:10 55 54 - 93 60° 15 21 29.82 29.82 5 BR OVC008 None
2018-09-19 00:00 57 55 - 93 60° 10 22 29.81 29.82 8 OVC008 None
2018-09-18 23:11 57 55 - 93 60° 13 20 29.80 29.81 6 BR OVC008 None
2018-09-18 23:00 57 55 - 93 50° 13 20 29.80 29.80 5 BR OVC008 None
2018-09-18 22:45 59 57 - 93 50° 10 18 29.80 29.80 5 BR OVC008 Pressure rising rapidly
2018-09-18 22:31 59 57 - 93 60° 9 - 29.78 29.79 6 BR OVC008 Pressure rising rapidly
2018-09-18 22:26 61 57 - 87 60° 9 - 29.78 29.78 5 BR OVC008 Pressure rising rapidly
2018-09-18 22:00 63 59 - 88 80° 9 - 29.77 29.78 9 BKN010 OVC014 None
2018-09-18 21:00 66 64 - 93 290° 5 - 29.75 29.76 9 SCT012 BKN020 BKN060 OVC120 None
2018-09-18 20:55 68 64 - 88 300° 6 - 29.75 29.76 9 SCT012 BKN020 BKN060 OVC140 None
2018-09-18 20:00 68 63 - 82 310° 6 - 29.75 29.75 9 FEW010 BKN120 None
2018-09-18 19:00 70 64 - 83 300° 10 - 29.74 29.74 9 FEW010 BKN120 None

Support USWX by starting your Amazon purchase here.